sensor_id;sensor_type;location;lat;lon;timestamp;pressure;altitude;pressure_sealevel;temperature;humidity
21102;BME280;10709;49.006;12.100;2024-02-23T00:01:09;48926.25;;;-146.00;100.00
21102;BME280;10709;49.006;12.100;2024-02-23T00:03:38;48932.13;;;-146.00;100.00
21102;BME280;10709;49.006;12.100;2024-02-23T00:06:05;48936.06;;;-146.00;100.00
21102;BME280;10709;49.006;12.100;2024-02-23T00:08:32;48953.69;;;-146.00;100.00
21102;BME280;10709;49.006;12.100;2024-02-23T00:10:59;48949.78;;;-146.00;100.00
21102;BME280;10709;49.006;12.100;2024-02-23T00:13:27;48955.66;;;-146.00;100.00
21102;BME280;10709;49.006;12.100;2024-02-23T00:15:53;48953.69;;;-146.00;100.00
21102;BME280;10709;49.006;12.100;2024-02-23T00:18:20;48953.69;;;-146.00;100.00
21102;BME280;10709;49.006;12.100;2024-02-23T00:20:47;48967.41;;;-146.00;100.00
21102;BME280;10709;49.006;12.100;2024-02-23T00:23:14;48961.53;;;-146.00;100.00
21102;BME280;10709;49.006;12.100;2024-02-23T00:25:41;48973.28;;;-146.00;100.00
21102;BME280;10709;49.006;12.100;2024-02-23T00:28:08;48973.28;;;-146.00;100.00
21102;BME280;10709;49.006;12.100;2024-02-23T00:30:35;48969.38;;;-146.00;100.00
21102;BME280;10709;49.006;12.100;2024-02-23T00:33:02;48977.19;;;-146.00;100.00
21102;BME280;10709;49.006;12.100;2024-02-23T00:35:29;48981.13;;;-146.00;100.00
21102;BME280;10709;49.006;12.100;2024-02-23T00:37:56;48981.13;;;-146.00;100.00
21102;BME280;10709;49.006;12.100;2024-02-23T00:40:22;48959.56;;;-146.00;100.00
21102;BME280;10709;49.006;12.100;2024-02-23T00:42:51;48969.38;;;-146.00;100.00
21102;BME280;10709;49.006;12.100;2024-02-23T00:45:18;48953.69;;;-146.00;100.00
21102;BME280;10709;49.006;12.100;2024-02-23T00:47:44;48973.28;;;-146.00;100.00
21102;BME280;10709;49.006;12.100;2024-02-23T00:50:14;48955.66;;;-146.00;100.00
21102;BME280;10709;49.006;12.100;2024-02-23T00:52:41;48957.59;;;-146.00;100.00
21102;BME280;10709;49.006;12.100;2024-02-23T00:55:07;48963.50;;;-146.00;100.00
21102;BME280;10709;49.006;12.100;2024-02-23T00:57:35;48957.59;;;-146.00;100.00
21102;BME280;10709;49.006;12.100;2024-02-23T01:00:03;48967.41;;;-146.00;100.00
21102;BME280;10709;49.006;12.100;2024-02-23T01:02:31;48961.53;;;-146.00;100.00
21102;BME280;10709;49.006;12.100;2024-02-23T01:05:00;48957.59;;;-146.00;100.00
21102;BME280;10709;49.006;12.100;2024-02-23T01:07:29;48961.53;;;-146.00;100.00
21102;BME280;10709;49.006;12.100;2024-02-23T01:09:58;48961.53;;;-146.00;100.00
21102;BME280;10709;49.006;12.100;2024-02-23T01:12:25;48951.72;;;-146.00;100.00
21102;BME280;10709;49.006;12.100;2024-02-23T01:14:53;48961.53;;;-146.00;100.00
21102;BME280;10709;49.006;12.100;2024-02-23T01:17:19;48957.59;;;-146.00;100.00
21102;BME280;10709;49.006;12.100;2024-02-23T01:19:46;48961.53;;;-146.00;100.00
21102;BME280;10709;49.006;12.100;2024-02-23T01:22:13;48969.38;;;-146.00;100.00
21102;BME280;10709;49.006;12.100;2024-02-23T01:24:43;48953.69;;;-146.00;100.00
21102;BME280;10709;49.006;12.100;2024-02-23T01:27:09;48945.84;;;-146.00;100.00
21102;BME280;10709;49.006;12.100;2024-02-23T01:29:36;48961.53;;;-146.00;100.00
21102;BME280;10709;49.006;12.100;2024-02-23T01:32:03;48953.69;;;-146.00;100.00
21102;BME280;10709;49.006;12.100;2024-02-23T01:34:29;48949.78;;;-146.00;100.00
21102;BME280;10709;49.006;12.100;2024-02-23T01:36:56;48941.94;;;-146.00;100.00
21102;BME280;10709;49.006;12.100;2024-02-23T01:39:22;48949.78;;;-146.00;100.00
21102;BME280;10709;49.006;12.100;2024-02-23T01:41:49;49012.47;;;-146.00;100.00
21102;BME280;10709;49.006;12.100;2024-02-23T01:44:16;48994.84;;;-146.00;100.00
21102;BME280;10709;49.006;12.100;2024-02-23T01:46:44;48985.03;;;-146.00;100.00
21102;BME280;10709;49.006;12.100;2024-02-23T01:49:14;48981.13;;;-146.00;100.00
21102;BME280;10709;49.006;12.100;2024-02-23T01:51:42;48981.13;;;-146.00;100.00
21102;BME280;10709;49.006;12.100;2024-02-23T01:54:09;48977.19;;;-146.00;100.00
21102;BME280;10709;49.006;12.100;2024-02-23T01:56:36;48973.28;;;-146.00;100.00
21102;BME280;10709;49.006;12.100;2024-02-23T01:59:03;48981.13;;;-146.00;100.00
21102;BME280;10709;49.006;12.100;2024-02-23T02:01:31;48983.06;;;-146.00;100.00
21102;BME280;10709;49.006;12.100;2024-02-23T02:03:58;48979.16;;;-146.00;100.00
21102;BME280;10709;49.006;12.100;2024-02-23T02:06:25;48996.78;;;-146.00;100.00
21102;BME280;10709;49.006;12.100;2024-02-23T02:08:52;48992.88;;;-146.00;100.00
21102;BME280;10709;49.006;12.100;2024-02-23T02:11:19;49010.50;;;-146.00;100.00
21102;BME280;10709;49.006;12.100;2024-02-23T02:13:45;49002.66;;;-146.00;100.00
21102;BME280;10709;49.006;12.100;2024-02-23T02:16:12;49022.25;;;-146.00;100.00
21102;BME280;10709;49.006;12.100;2024-02-23T02:18:38;49002.66;;;-146.00;100.00
21102;BME280;10709;49.006;12.100;2024-02-23T02:21:05;49008.53;;;-146.00;100.00
21102;BME280;10709;49.006;12.100;2024-02-23T02:23:31;48992.88;;;-146.00;100.00
21102;BME280;10709;49.006;12.100;2024-02-23T02:26:00;48992.88;;;-146.00;100.00
21102;BME280;10709;49.006;12.100;2024-02-23T02:28:26;49000.72;;;-146.00;100.00
21102;BME280;10709;49.006;12.100;2024-02-23T02:30:53;49002.66;;;-146.00;100.00
21102;BME280;10709;49.006;12.100;2024-02-23T02:33:21;49035.97;;;-146.00;100.00
21102;BME280;10709;49.006;12.100;2024-02-23T02:35:48;49035.97;;;-146.00;100.00
21102;BME280;10709;49.006;12.100;2024-02-23T02:38:16;49043.81;;;-146.00;100.00
21102;BME280;10709;49.006;12.100;2024-02-23T02:40:43;49032.06;;;-146.00;100.00
21102;BME280;10709;49.006;12.100;2024-02-23T02:43:10;49032.06;;;-146.00;100.00
21102;BME280;10709;49.006;12.100;2024-02-23T02:45:37;49039.88;;;-146.00;100.00
21102;BME280;10709;49.006;12.100;2024-02-23T02:48:04;49045.78;;;-146.00;100.00
21102;BME280;10709;49.006;12.100;2024-02-23T02:50:31;49028.13;;;-146.00;100.00
21102;BME280;10709;49.006;12.100;2024-02-23T02:52:57;49035.97;;;-146.00;100.00
21102;BME280;10709;49.006;12.100;2024-02-23T02:55:27;49067.31;;;-146.00;100.00
21102;BME280;10709;49.006;12.100;2024-02-23T02:57:54;49047.72;;;-146.00;100.00
21102;BME280;10709;49.006;12.100;2024-02-23T03:00:20;49035.97;;;-146.00;100.00
21102;BME280;10709;49.006;12.100;2024-02-23T03:02:47;49037.94;;;-146.00;100.00
21102;BME280;10709;49.006;12.100;2024-02-23T03:05:13;49020.31;;;-146.00;100.00
21102;BME280;10709;49.006;12.100;2024-02-23T03:07:40;49061.44;;;-146.00;99.54
21102;BME280;10709;49.006;12.100;2024-02-23T03:10:08;49035.97;;;-146.00;100.00
21102;BME280;10709;49.006;12.100;2024-02-23T03:12:34;49039.88;;;-146.00;99.94
21102;BME280;10709;49.006;12.100;2024-02-23T03:15:01;49069.28;;;-146.00;100.00
21102;BME280;10709;49.006;12.100;2024-02-23T03:17:31;49047.72;;;-146.00;99.80
21102;BME280;10709;49.006;12.100;2024-02-23T03:19:59;49059.47;;;-146.00;99.91
21102;BME280;10709;49.006;12.100;2024-02-23T03:22:26;49073.19;;;-146.00;99.58
21102;BME280;10709;49.006;12.100;2024-02-23T03:24:53;49065.34;;;-146.00;98.76
21102;BME280;10709;49.006;12.100;2024-02-23T03:27:27;49032.06;;;-146.00;99.57
21102;BME280;10709;49.006;12.100;2024-02-23T03:29:54;49049.69;;;-146.00;99.34
21102;BME280;10709;49.006;12.100;2024-02-23T03:32:22;49039.88;;;-146.00;99.61
21102;BME280;10709;49.006;12.100;2024-02-23T03:34:48;49061.44;;;-146.00;98.53
21102;BME280;10709;49.006;12.100;2024-02-23T03:37:15;49065.34;;;-146.00;98.47
21102;BME280;10709;49.006;12.100;2024-02-23T03:39:42;49063.41;;;-146.00;98.92
21102;BME280;10709;49.006;12.100;2024-02-23T03:42:08;49032.06;;;-146.00;98.44
21102;BME280;10709;49.006;12.100;2024-02-23T03:44:38;49063.41;;;-146.00;98.97
21102;BME280;10709;49.006;12.100;2024-02-23T03:47:04;49067.31;;;-146.00;98.77
21102;BME280;10709;49.006;12.100;2024-02-23T03:49:32;49067.31;;;-146.00;98.87
21102;BME280;10709;49.006;12.100;2024-02-23T03:51:59;49061.44;;;-146.00;99.85
21102;BME280;10709;49.006;12.100;2024-02-23T03:54:27;49043.81;;;-146.00;98.19
21102;BME280;10709;49.006;12.100;2024-02-23T03:56:53;49039.88;;;-146.00;98.16
21102;BME280;10709;49.006;12.100;2024-02-23T03:59:23;49039.88;;;-146.00;98.59
21102;BME280;10709;49.006;12.100;2024-02-23T04:01:50;49028.13;;;-146.00;97.83
21102;BME280;10709;49.006;12.100;2024-02-23T04:04:17;49071.25;;;-146.00;98.53
21102;BME280;10709;49.006;12.100;2024-02-23T04:06:43;49045.78;;;-146.00;97.85
21102;BME280;10709;49.006;12.100;2024-02-23T04:09:10;49083.00;;;-146.00;98.34
21102;BME280;10709;49.006;12.100;2024-02-23T04:11:36;49035.97;;;-146.00;97.99
21102;BME280;10709;49.006;12.100;2024-02-23T04:14:03;49055.56;;;-146.00;97.68
21102;BME280;10709;49.006;12.100;2024-02-23T04:16:31;49063.41;;;-146.00;98.10
21102;BME280;10709;49.006;12.100;2024-02-23T04:18:58;49055.56;;;-146.00;99.09
21102;BME280;10709;49.006;12.100;2024-02-23T04:21:25;49055.56;;;-146.00;98.42
21102;BME280;10709;49.006;12.100;2024-02-23T04:23:53;49067.31;;;-146.00;98.30
21102;BME280;10709;49.006;12.100;2024-02-23T04:26:20;49063.41;;;-146.00;98.19
21102;BME280;10709;49.006;12.100;2024-02-23T04:28:47;49047.72;;;-146.00;97.81
21102;BME280;10709;49.006;12.100;2024-02-23T04:31:19;49047.72;;;-146.00;98.75
21102;BME280;10709;49.006;12.100;2024-02-23T04:33:45;49059.47;;;-146.00;99.90
21102;BME280;10709;49.006;12.100;2024-02-23T04:36:12;49059.47;;;-146.00;98.77
21102;BME280;10709;49.006;12.100;2024-02-23T04:38:39;49055.56;;;-146.00;99.68
21102;BME280;10709;49.006;12.100;2024-02-23T04:41:06;49059.47;;;-146.00;99.54
21102;BME280;10709;49.006;12.100;2024-02-23T04:43:34;49059.47;;;-146.00;98.36
21102;BME280;10709;49.006;12.100;2024-02-23T04:46:03;49067.31;;;-146.00;98.27
21102;BME280;10709;49.006;12.100;2024-02-23T04:48:29;49077.13;;;-146.00;98.31
21102;BME280;10709;49.006;12.100;2024-02-23T04:50:57;49047.72;;;-146.00;97.91
21102;BME280;10709;49.006;12.100;2024-02-23T04:53:24;49067.31;;;-146.00;99.86
21102;BME280;10709;49.006;12.100;2024-02-23T04:55:52;49028.13;;;-146.00;99.57
21102;BME280;10709;49.006;12.100;2024-02-23T04:58:19;49067.31;;;-146.00;99.24
21102;BME280;10709;49.006;12.100;2024-02-23T05:00:47;49055.56;;;-146.00;99.11
21102;BME280;10709;49.006;12.100;2024-02-23T05:03:15;49035.97;;;-146.00;99.15
21102;BME280;10709;49.006;12.100;2024-02-23T05:05:42;49057.53;;;-146.00;98.49
21102;BME280;10709;49.006;12.100;2024-02-23T05:08:09;49075.16;;;-146.00;97.87
21102;BME280;10709;49.006;12.100;2024-02-23T05:10:36;49043.81;;;-146.00;97.41
21102;BME280;10709;49.006;12.100;2024-02-23T05:13:02;49043.81;;;-146.00;96.71
21102;BME280;10709;49.006;12.100;2024-02-23T05:15:29;49090.81;;;-146.00;98.02
21102;BME280;10709;49.006;12.100;2024-02-23T05:17:56;49051.66;;;-146.00;97.83
21102;BME280;10709;49.006;12.100;2024-02-23T05:20:23;49071.25;;;-146.00;97.77
21102;BME280;10709;49.006;12.100;2024-02-23T05:22:50;49053.59;;;-146.00;98.23
21102;BME280;10709;49.006;12.100;2024-02-23T05:25:17;49063.41;;;-146.00;98.98
21102;BME280;10709;49.006;12.100;2024-02-23T05:27:44;49059.47;;;-146.00;98.60
21102;BME280;10709;49.006;12.100;2024-02-23T05:30:11;49045.78;;;-146.00;99.76
21102;BME280;10709;49.006;12.100;2024-02-23T05:32:40;49055.56;;;-146.00;100.00
21102;BME280;10709;49.006;12.100;2024-02-23T05:35:07;49071.25;;;-146.00;100.00
21102;BME280;10709;49.006;12.100;2024-02-23T05:37:35;49059.47;;;-146.00;100.00
21102;BME280;10709;49.006;12.100;2024-02-23T05:40:04;49047.72;;;-146.00;100.00
21102;BME280;10709;49.006;12.100;2024-02-23T05:42:37;49079.06;;;-146.00;100.00
21102;BME280;10709;49.006;12.100;2024-02-23T05:45:07;49053.59;;;-146.00;100.00
21102;BME280;10709;49.006;12.100;2024-02-23T05:47:37;49039.88;;;-146.00;100.00
21102;BME280;10709;49.006;12.100;2024-02-23T05:50:04;49053.59;;;-146.00;100.00
21102;BME280;10709;49.006;12.100;2024-02-23T05:52:31;49045.78;;;-146.00;100.00
21102;BME280;10709;49.006;12.100;2024-02-23T05:54:59;49035.97;;;-146.00;100.00
21102;BME280;10709;49.006;12.100;2024-02-23T05:57:29;49039.88;;;-146.00;99.60
21102;BME280;10709;49.006;12.100;2024-02-23T06:00:00;49043.81;;;-146.00;99.39
21102;BME280;10709;49.006;12.100;2024-02-23T06:02:26;49067.31;;;-146.00;99.80
21102;BME280;10709;49.006;12.100;2024-02-23T06:04:56;49073.19;;;-146.00;100.00
21102;BME280;10709;49.006;12.100;2024-02-23T06:07:22;49079.06;;;-146.00;99.38
21102;BME280;10709;49.006;12.100;2024-02-23T06:09:56;49047.72;;;-146.00;99.11
21102;BME280;10709;49.006;12.100;2024-02-23T06:12:26;49051.66;;;-146.00;98.93
21102;BME280;10709;49.006;12.100;2024-02-23T06:14:53;49067.31;;;-146.00;98.62
21102;BME280;10709;49.006;12.100;2024-02-23T06:17:21;49075.16;;;-146.00;99.86
21102;BME280;10709;49.006;12.100;2024-02-23T06:19:49;49045.78;;;-146.00;98.99
21102;BME280;10709;49.006;12.100;2024-02-23T06:27:44;49059.47;;;-146.00;99.46
21102;BME280;10709;49.006;12.100;2024-02-23T06:30:13;49086.91;;;-146.00;99.09
21102;BME280;10709;49.006;12.100;2024-02-23T06:32:41;49055.56;;;-146.00;98.14
21102;BME280;10709;49.006;12.100;2024-02-23T06:35:11;49083.00;;;-146.00;99.07
21102;BME280;10709;49.006;12.100;2024-02-23T06:37:38;49061.44;;;-146.00;98.56
21102;BME280;10709;49.006;12.100;2024-02-23T06:40:07;49075.16;;;-146.00;99.62
21102;BME280;10709;49.006;12.100;2024-02-23T06:42:36;49032.06;;;-146.00;99.45
21102;BME280;10709;49.006;12.100;2024-02-23T06:45:06;49055.56;;;-146.00;98.89
21102;BME280;10709;49.006;12.100;2024-02-23T06:47:32;49047.72;;;-146.00;98.21
21102;BME280;10709;49.006;12.100;2024-02-23T06:50:01;49047.72;;;-146.00;97.84
21102;BME280;10709;49.006;12.100;2024-02-23T06:52:29;49075.16;;;-146.00;97.11
21102;BME280;10709;49.006;12.100;2024-02-23T06:54:56;49057.53;;;-146.00;97.44
21102;BME280;10709;49.006;12.100;2024-02-23T06:57:22;49063.41;;;-146.00;97.95
21102;BME280;10709;49.006;12.100;2024-02-23T06:59:52;49086.91;;;-146.00;98.04
21102;BME280;10709;49.006;12.100;2024-02-23T07:02:18;49051.66;;;-146.00;98.47
21102;BME280;10709;49.006;12.100;2024-02-23T07:04:45;49055.56;;;-146.00;98.79
21102;BME280;10709;49.006;12.100;2024-02-23T07:07:12;49067.31;;;-146.00;98.92
21102;BME280;10709;49.006;12.100;2024-02-23T07:09:38;49071.25;;;-146.00;97.95
21102;BME280;10709;49.006;12.100;2024-02-23T07:12:05;49069.28;;;-146.00;97.53
21102;BME280;10709;49.006;12.100;2024-02-23T07:14:32;49084.94;;;-146.00;97.91
21102;BME280;10709;49.006;12.100;2024-02-23T07:16:59;49035.97;;;-146.00;98.84
21102;BME280;10709;49.006;12.100;2024-02-23T07:19:26;49059.47;;;-146.00;98.41
21102;BME280;10709;49.006;12.100;2024-02-23T07:21:54;49051.66;;;-146.00;98.42
21102;BME280;10709;49.006;12.100;2024-02-23T07:24:21;49067.31;;;-146.00;98.45
21102;BME280;10709;49.006;12.100;2024-02-23T07:26:49;49081.03;;;-146.00;96.92
21102;BME280;10709;49.006;12.100;2024-02-23T07:29:16;49059.47;;;-146.00;97.64
21102;BME280;10709;49.006;12.100;2024-02-23T07:31:44;49071.25;;;-146.00;96.99
21102;BME280;10709;49.006;12.100;2024-02-23T07:34:12;49069.28;;;-146.00;97.99
21102;BME280;10709;49.006;12.100;2024-02-23T07:36:39;49086.91;;;-146.00;97.81
21102;BME280;10709;49.006;12.100;2024-02-23T07:39:06;49051.66;;;-146.00;97.62
21102;BME280;10709;49.006;12.100;2024-02-23T07:41:32;49075.16;;;-146.00;98.60
21102;BME280;10709;49.006;12.100;2024-02-23T07:43:59;49051.66;;;-146.00;97.78
21102;BME280;10709;49.006;12.100;2024-02-23T07:46:27;49067.31;;;-146.00;98.55
21102;BME280;10709;49.006;12.100;2024-02-23T07:48:56;49061.44;;;-146.00;98.65
21102;BME280;10709;49.006;12.100;2024-02-23T07:51:23;49081.03;;;-146.00;98.40
21102;BME280;10709;49.006;12.100;2024-02-23T07:53:52;49083.00;;;-146.00;98.32
21102;BME280;10709;49.006;12.100;2024-02-23T07:56:19;49079.06;;;-146.00;98.61
21102;BME280;10709;49.006;12.100;2024-02-23T07:58:45;49047.72;;;-146.00;97.18
21102;BME280;10709;49.006;12.100;2024-02-23T08:01:16;49083.00;;;-146.00;98.00
21102;BME280;10709;49.006;12.100;2024-02-23T08:03:42;49061.44;;;-146.00;97.80
21102;BME280;10709;49.006;12.100;2024-02-23T08:06:09;49063.41;;;-146.00;98.45
21102;BME280;10709;49.006;12.100;2024-02-23T08:08:36;49081.03;;;-146.00;98.15
21102;BME280;10709;49.006;12.100;2024-02-23T08:11:03;49075.16;;;-146.00;98.15
21102;BME280;10709;49.006;12.100;2024-02-23T08:13:31;49063.41;;;-146.00;97.46
21102;BME280;10709;49.006;12.100;2024-02-23T08:15:58;49075.16;;;-146.00;98.04
21102;BME280;10709;49.006;12.100;2024-02-23T08:18:24;49075.16;;;-146.00;98.25
21102;BME280;10709;49.006;12.100;2024-02-23T08:20:51;49047.72;;;-146.00;98.53
21102;BME280;10709;49.006;12.100;2024-02-23T08:23:18;49035.97;;;-146.00;99.55
21102;BME280;10709;49.006;12.100;2024-02-23T08:25:47;49071.25;;;-146.00;98.49
21102;BME280;10709;49.006;12.100;2024-02-23T08:28:13;49094.75;;;-146.00;97.65
21102;BME280;10709;49.006;12.100;2024-02-23T08:30:40;49071.25;;;-146.00;97.35
21102;BME280;10709;49.006;12.100;2024-02-23T08:33:06;49079.06;;;-146.00;97.29
21102;BME280;10709;49.006;12.100;2024-02-23T08:35:35;49067.31;;;-146.00;97.19
21102;BME280;10709;49.006;12.100;2024-02-23T08:38:02;49088.88;;;-146.00;96.28
21102;BME280;10709;49.006;12.100;2024-02-23T08:40:29;49075.16;;;-146.00;95.96
21102;BME280;10709;49.006;12.100;2024-02-23T08:42:55;49094.75;;;-146.00;95.08
21102;BME280;10709;49.006;12.100;2024-02-23T08:45:22;49081.03;;;-146.00;93.84
21102;BME280;10709;49.006;12.100;2024-02-23T08:47:48;49094.75;;;-146.00;94.69
21102;BME280;10709;49.006;12.100;2024-02-23T08:50:15;49047.72;;;-146.00;94.95
21102;BME280;10709;49.006;12.100;2024-02-23T08:52:42;49067.31;;;-146.00;94.85
21102;BME280;10709;49.006;12.100;2024-02-23T08:55:08;49079.06;;;-146.00;94.73
21102;BME280;10709;49.006;12.100;2024-02-23T08:57:35;49071.25;;;-146.00;94.68
21102;BME280;10709;49.006;12.100;2024-02-23T09:00:03;49088.88;;;-146.00;94.41
21102;BME280;10709;49.006;12.100;2024-02-23T09:02:31;49061.44;;;-146.00;93.35
21102;BME280;10709;49.006;12.100;2024-02-23T09:04:59;49098.66;;;-146.00;92.13
21102;BME280;10709;49.006;12.100;2024-02-23T09:07:25;49075.16;;;-146.00;92.19
21102;BME280;10709;49.006;12.100;2024-02-23T09:09:52;49071.25;;;-146.00;92.65
21102;BME280;10709;49.006;12.100;2024-02-23T09:12:20;49075.16;;;-146.00;93.82
21102;BME280;10709;49.006;12.100;2024-02-23T09:14:47;49094.75;;;-146.00;92.71
21102;BME280;10709;49.006;12.100;2024-02-23T09:17:14;49075.16;;;-146.00;92.92
21102;BME280;10709;49.006;12.100;2024-02-23T09:19:40;49071.25;;;-146.00;90.30
21102;BME280;10709;49.006;12.100;2024-02-23T09:22:07;49090.81;;;-146.00;91.52
21102;BME280;10709;49.006;12.100;2024-02-23T09:24:34;49090.81;;;-146.00;90.50
21102;BME280;10709;49.006;12.100;2024-02-23T09:27:01;49079.06;;;-146.00;90.52
21102;BME280;10709;49.006;12.100;2024-02-23T09:29:29;49079.06;;;-146.00;89.96
21102;BME280;10709;49.006;12.100;2024-02-23T09:31:57;49090.81;;;-146.00;90.43
21102;BME280;10709;49.006;12.100;2024-02-23T09:34:24;49083.00;;;-146.00;90.67
21102;BME280;10709;49.006;12.100;2024-02-23T09:36:51;49075.16;;;-146.00;89.38
21102;BME280;10709;49.006;12.100;2024-02-23T09:39:18;49051.66;;;-146.00;90.16
21102;BME280;10709;49.006;12.100;2024-02-23T10:08:23;49075.16;;;-146.00;88.75
21102;BME280;10709;49.006;12.100;2024-02-23T10:16:23;49039.88;;;-146.00;88.52
21102;BME280;10709;49.006;12.100;2024-02-23T10:20:14;49049.69;;;-146.00;87.52
21102;BME280;10709;49.006;12.100;2024-02-23T10:28:21;48992.88;;;-146.00;83.47
21102;BME280;10709;49.006;12.100;2024-02-23T10:32:18;49022.25;;;-146.00;84.82
21102;BME280;10709;49.006;12.100;2024-02-23T10:44:05;48992.88;;;-146.00;85.17
21102;BME280;10709;49.006;12.100;2024-02-23T10:55:34;48938.03;;;-146.00;80.01
21102;BME280;10709;49.006;12.100;2024-02-23T10:59:39;48934.09;;;-146.00;80.34
21102;BME280;10709;49.006;12.100;2024-02-23T11:11:24;48898.84;;;-146.00;78.74
21102;BME280;10709;49.006;12.100;2024-02-23T11:15:41;48916.47;;;-146.00;79.66
21102;BME280;10709;49.006;12.100;2024-02-23T11:19:40;48916.47;;;-146.00;79.41
21102;BME280;10709;49.006;12.100;2024-02-23T11:23:49;48961.53;;;-146.00;81.38
21102;BME280;10709;49.006;12.100;2024-02-23T11:31:15;48949.78;;;-146.00;82.78
21102;BME280;10709;49.006;12.100;2024-02-23T11:38:47;48990.91;;;-146.00;83.97
21102;BME280;10709;49.006;12.100;2024-02-23T11:47:04;48965.44;;;-146.00;84.03
21102;BME280;10709;49.006;12.100;2024-02-23T11:50:36;49004.63;;;-146.00;83.98
21102;BME280;10709;49.006;12.100;2024-02-23T11:54:23;49000.72;;;-146.00;83.82
21102;BME280;10709;49.006;12.100;2024-02-23T11:56:50;48988.94;;;-146.00;84.09
21102;BME280;10709;49.006;12.100;2024-02-23T11:59:22;48961.53;;;-146.00;82.83
21102;BME280;10709;49.006;12.100;2024-02-23T12:01:49;48981.13;;;-146.00;84.48
21102;BME280;10709;49.006;12.100;2024-02-23T12:04:16;48992.88;;;-146.00;83.75
21102;BME280;10709;49.006;12.100;2024-02-23T12:06:42;48983.06;;;-146.00;83.71
21102;BME280;10709;49.006;12.100;2024-02-23T12:09:09;48983.06;;;-146.00;84.26
21102;BME280;10709;49.006;12.100;2024-02-23T12:11:37;48941.94;;;-146.00;82.51
21102;BME280;10709;49.006;12.100;2024-02-23T12:14:05;48941.94;;;-146.00;83.04
21102;BME280;10709;49.006;12.100;2024-02-23T12:16:35;48985.03;;;-146.00;83.87
21102;BME280;10709;49.006;12.100;2024-02-23T12:19:03;49010.50;;;-146.00;84.39
21102;BME280;10709;49.006;12.100;2024-02-23T12:21:30;48977.19;;;-146.00;83.50
21102;BME280;10709;49.006;12.100;2024-02-23T12:23:56;48961.53;;;-146.00;83.23
21102;BME280;10709;49.006;12.100;2024-02-23T12:26:26;49012.47;;;-146.00;84.03
21102;BME280;10709;49.006;12.100;2024-02-23T12:29:00;48983.06;;;-146.00;82.80
21102;BME280;10709;49.006;12.100;2024-02-23T12:31:26;48973.28;;;-146.00;82.40
21102;BME280;10709;49.006;12.100;2024-02-23T12:33:53;48934.09;;;-146.00;81.71
21102;BME280;10709;49.006;12.100;2024-02-23T12:36:20;48957.59;;;-146.00;82.10
21102;BME280;10709;49.006;12.100;2024-02-23T12:38:46;48949.78;;;-146.00;80.79
21102;BME280;10709;49.006;12.100;2024-02-23T12:41:13;48926.25;;;-146.00;81.43
21102;BME280;10709;49.006;12.100;2024-02-23T12:43:40;48922.34;;;-146.00;80.84
21102;BME280;10709;49.006;12.100;2024-02-23T12:46:09;48932.13;;;-146.00;81.06
21102;BME280;10709;49.006;12.100;2024-02-23T12:48:39;48947.81;;;-146.00;80.93
21102;BME280;10709;49.006;12.100;2024-02-23T12:51:06;48924.31;;;-146.00;80.11
21102;BME280;10709;49.006;12.100;2024-02-23T12:53:39;48930.19;;;-146.00;80.90
21102;BME280;10709;49.006;12.100;2024-02-23T12:56:07;48922.34;;;-146.00;81.36
21102;BME280;10709;49.006;12.100;2024-02-23T12:58:35;48930.19;;;-146.00;80.88
21102;BME280;10709;49.006;12.100;2024-02-23T13:01:03;48934.09;;;-146.00;81.29
21102;BME280;10709;49.006;12.100;2024-02-23T13:03:33;48957.59;;;-146.00;81.00
21102;BME280;10709;49.006;12.100;2024-02-23T13:06:00;48945.84;;;-146.00;81.45
21102;BME280;10709;49.006;12.100;2024-02-23T13:08:28;48949.78;;;-146.00;81.19
21102;BME280;10709;49.006;12.100;2024-02-23T13:10:55;48887.09;;;-146.00;80.63
21102;BME280;10709;49.006;12.100;2024-02-23T13:13:23;48926.25;;;-146.00;79.38
21102;BME280;10709;49.006;12.100;2024-02-23T13:15:53;48910.59;;;-146.00;78.56
21102;BME280;10709;49.006;12.100;2024-02-23T13:18:19;48894.91;;;-146.00;78.32
21102;BME280;10709;49.006;12.100;2024-02-23T13:20:46;48902.75;;;-146.00;78.71
21102;BME280;10709;49.006;12.100;2024-02-23T13:23:13;48892.97;;;-146.00;78.26
21102;BME280;10709;49.006;12.100;2024-02-23T13:25:43;48894.91;;;-146.00;78.53
21102;BME280;10709;49.006;12.100;2024-02-23T13:28:09;48894.91;;;-146.00;78.46
21102;BME280;10709;49.006;12.100;2024-02-23T13:30:37;48885.13;;;-146.00;78.21
21102;BME280;10709;49.006;12.100;2024-02-23T13:33:04;48900.78;;;-146.00;78.77
21102;BME280;10709;49.006;12.100;2024-02-23T13:35:32;48906.69;;;-146.00;78.97
21102;BME280;10709;49.006;12.100;2024-02-23T13:37:59;48891.00;;;-146.00;78.39
21102;BME280;10709;49.006;12.100;2024-02-23T13:40:26;48900.78;;;-146.00;79.53
21102;BME280;10709;49.006;12.100;2024-02-23T13:42:54;48906.69;;;-146.00;78.69
21102;BME280;10709;49.006;12.100;2024-02-23T13:45:21;48898.84;;;-146.00;78.17
21102;BME280;10709;49.006;12.100;2024-02-23T13:48:00;48902.75;;;-146.00;78.29
21102;BME280;10709;49.006;12.100;2024-02-23T13:50:28;48926.25;;;-146.00;79.17
21102;BME280;10709;49.006;12.100;2024-02-23T13:52:55;48887.09;;;-146.00;79.08
21102;BME280;10709;49.006;12.100;2024-02-23T13:55:22;48857.69;;;-146.00;77.18
21102;BME280;10709;49.006;12.100;2024-02-23T13:57:49;48891.00;;;-146.00;78.05
21102;BME280;10709;49.006;12.100;2024-02-23T14:00:17;48877.28;;;-146.00;77.79
21102;BME280;10709;49.006;12.100;2024-02-23T14:02:46;48871.41;;;-146.00;77.99
21102;BME280;10709;49.006;12.100;2024-02-23T14:05:14;48863.56;;;-146.00;78.20
21102;BME280;10709;49.006;12.100;2024-02-23T14:07:42;48867.50;;;-146.00;77.55